This is the latest recevied weather packets stored in our database for station/object WA7CUG. If no packets are shown the sender has not sent any weather packets the latest 10 day(s).
| Time | Temp. | Humidity | Pressure | Rain* | Wind** | Luminosity | Snow |
|---|---|---|---|---|---|---|---|
| 1777416569 | 22.22° C | 38% | 1017.1 hPa | 0 mm | - | 189 W/m² | - |
| 1777416266 | 23.33° C | 33% | 1017.2 hPa | 0 mm | - | 177 W/m² | - |
| 1777415964 | 22.22° C | 38% | 1017.4 hPa | 0 mm | - | 576 W/m² | - |
| 1777415661 | 22.78° C | 32% | 1017.2 hPa | 0 mm | - | 595 W/m² | - |
| 1777415356 | 21.67° C | 32% | 1017.1 hPa | 0 mm | - | 630 W/m² | - |
| 1777415051 | 22.78° C | 32% | 1017.2 hPa | 0 mm | - | 610 W/m² | - |
| 1777414750 | 21.11° C | 40% | 1017.4 hPa | 0 mm | - | 655 W/m² | - |
| 1777414447 | 21.11° C | 36% | 1017.2 hPa | 0 mm | - | 153 W/m² | - |
| 1777414145 | 22.78° C | 33% | 1017.3 hPa | 0 mm | - | 178 W/m² | - |
| 1777413842 | 22.22° C | 34% | 1017.2 hPa | 0 mm | - | 617 W/m² | - |
| 1777413537 | 22.78° C | 33% | 1017.3 hPa | 0 mm | - | 509 W/m² | - |
| 1777413233 | 22.78° C | 35% | 1017.6 hPa | 0 mm | - | 497 W/m² | - |
| 1777412929 | 22.22° C | 36% | 1017.5 hPa | 0 mm | - | 483 W/m² | - |
| 1777412628 | 22.22° C | 35% | 1017.6 hPa | 0 mm | - | 606 W/m² | - |
| 1777412325 | 21.67° C | 37% | 1017.8 hPa | 0 mm | - | 407 W/m² | - |
| 1777412020 | 22.22° C | 33% | 1017.7 hPa | 0 mm | - | 438 W/m² | - |
| 1777411719 | 21.67° C | 36% | 1017.6 hPa | 0 mm | - | 556 W/m² | - |
| 1777411415 | 21.67° C | 36% | 1017.8 hPa | 0 mm | - | 663 W/m² | - |
| 1777411109 | 21.11° C | 36% | 1017.8 hPa | 0 mm | - | 605 W/m² | - |
| 1777410809 | 21.11° C | 36% | 1017.8 hPa | 0 mm | - | 429 W/m² | - |
| 1777410508 | 20° C | 39% | 1017.8 hPa | 0 mm | - | 418 W/m² | - |
| 1777410202 | 21.11° C | 38% | 1017.8 hPa | 0 mm | - | 244 W/m² | - |
| 1777409898 | 21.67° C | 35% | 1017.9 hPa | 0 mm | - | 530 W/m² | - |
| 1777409593 | 22.78° C | 37% | 1018 hPa | 0 mm | - | 681 W/m² | - |
| 1777409288 | 21.67° C | 36% | 1017.7 hPa | 0 mm | - | 752 W/m² | - |
* Rain latest hour (hover to see other rain measurements)
** Current wind speed in m/s (hover to see current wind gust speed)